Gallatin Gateway, Montana
Current Conditions -  °F | °C
As of 8:56 PM on Thursday 27 Nov 2014 (Local Time) from KBZN Reporting Station
Few Clouds Few Clouds  
Wind Chill: 44°   Ceiling: Unl
Heat Index: 47°   Visibility: 10mi
Dew Point: 34°   Wind: 6mph
Humidity: 61%   Direction: 270°W
Pressure: 29.87"   Gusts: NA
Location:  45.59°N, 111.2°W
Report Text: KBZN 280356Z 27005KT 10SM FEW095 08/01 A2987 RMK AO2 SLP116 T00830011 $
Loading
Personal Weather Stations






























Interactive Weather Map New forecast layout! Learn more

10-Day Weather Forecast

Advertisements
Track Severe Weather on mobile